createdAt,value
2023-09-17T00:01:16.112Z,98508.46
2023-09-17T00:03:52.671Z,98505.52
2023-09-17T00:06:20.385Z,98505.10
2023-09-17T00:08:47.312Z,98505.48
2023-09-17T00:11:15.004Z,98504.02
2023-09-17T00:13:42.318Z,98507.61
2023-09-17T00:16:09.299Z,98509.11
2023-09-17T00:18:36.474Z,98504.98
2023-09-17T00:21:05.669Z,98504.25
2023-09-17T00:23:32.704Z,98504.14
2023-09-17T00:25:59.487Z,98500.25
2023-09-17T00:28:26.713Z,98494.63
2023-09-17T00:30:54.826Z,98496.40
2023-09-17T00:33:21.623Z,98494.92
2023-09-17T00:35:48.864Z,98492.36
2023-09-17T00:38:15.629Z,98489.42
2023-09-17T00:40:42.282Z,98494.96
2023-09-17T00:43:09.753Z,98491.60
2023-09-17T00:45:36.822Z,98493.66
2023-09-17T00:48:05.420Z,98490.21
2023-09-17T00:50:33.326Z,98496.15
2023-09-17T00:53:01.134Z,98492.42
2023-09-17T00:55:30.183Z,98488.24
2023-09-17T00:57:59.072Z,98492.06
2023-09-17T01:00:26.907Z,98492.13
2023-09-17T01:02:55.032Z,98494.80
2023-09-17T01:05:22.319Z,98497.09
2023-09-17T01:07:50.329Z,98492.62
2023-09-17T01:10:18.180Z,98487.63
2023-09-17T01:12:45.070Z,98488.30
2023-09-17T01:15:11.925Z,98489.48
2023-09-17T01:17:38.720Z,98490.27
2023-09-17T01:20:26.487Z,98488.64
2023-09-17T01:23:09.101Z,98492.74
2023-09-17T01:25:47.074Z,98493.88
2023-09-17T01:28:14.406Z,98492.86
2023-09-17T01:30:42.289Z,98495.14
2023-09-17T01:33:12.778Z,98497.56
2023-09-17T01:36:06.221Z,98495.14
2023-09-17T01:38:40.582Z,98496.98
2023-09-17T01:41:08.512Z,98500.30
2023-09-17T01:43:38.639Z,98501.02
2023-09-17T01:46:06.460Z,98505.05
2023-09-17T01:48:33.649Z,98508.38
2023-09-17T01:51:01.363Z,98507.30
2023-09-17T01:53:28.900Z,98509.63
2023-09-17T01:55:57.039Z,98512.27
2023-09-17T01:58:24.272Z,98511.15
2023-09-17T02:00:53.204Z,98511.76
2023-09-17T02:03:20.705Z,98513.49
2023-09-17T02:05:48.007Z,98512.84
2023-09-17T02:08:14.739Z,98504.91
2023-09-17T02:10:41.538Z,98508.08
2023-09-17T02:13:08.715Z,98512.19
2023-09-17T02:15:35.408Z,98513.38
2023-09-17T02:18:02.407Z,98513.37
2023-09-17T02:20:29.481Z,98510.67
2023-09-17T02:22:56.318Z,98506.30
2023-09-17T02:25:23.387Z,98503.82
2023-09-17T02:27:50.642Z,98503.16
2023-09-17T02:30:17.240Z,98500.72
2023-09-17T02:32:44.670Z,98502.80
2023-09-17T02:35:11.909Z,98499.60
2023-09-17T02:37:39.473Z,98499.27
2023-09-17T02:40:09.448Z,98497.55
2023-09-17T02:42:37.581Z,98494.61
2023-09-17T02:45:06.503Z,98491.36
2023-09-17T02:47:36.293Z,98490.98
2023-09-17T02:50:03.701Z,98488.38
2023-09-17T02:52:30.901Z,98488.23
2023-09-17T02:54:57.677Z,98491.52
2023-09-17T02:57:24.361Z,98489.48
2023-09-17T02:59:52.373Z,98497.23
2023-09-17T03:02:20.481Z,98497.52
2023-09-17T03:04:47.379Z,98496.77
2023-09-17T03:07:15.651Z,98500.45
2023-09-17T03:09:43.184Z,98499.19
2023-09-17T03:12:11.399Z,98501.40
2023-09-17T03:14:39.427Z,98502.09
2023-09-17T03:17:07.112Z,98504.19
2023-09-17T03:19:34.198Z,98504.70
2023-09-17T03:22:03.149Z,98505.36
2023-09-17T03:24:29.876Z,98502.19
2023-09-17T03:26:57.099Z,98500.63
2023-09-17T03:29:25.039Z,98502.29
2023-09-17T03:31:52.923Z,98498.41
2023-09-17T03:34:20.190Z,98502.63
2023-09-17T03:36:47.358Z,98505.50
2023-09-17T03:39:14.022Z,98501.10
2023-09-17T03:41:41.402Z,98505.27
2023-09-17T03:44:10.473Z,98507.85
2023-09-17T03:46:38.359Z,98505.25
2023-09-17T03:49:05.165Z,98506.17
2023-09-17T03:51:32.446Z,98504.05
2023-09-17T03:54:00.361Z,98508.05
2023-09-17T03:56:27.710Z,98504.84
2023-09-17T03:58:54.960Z,98498.02
2023-09-17T04:01:22.957Z,98494.75
2023-09-17T04:03:50.668Z,98497.89
2023-09-17T04:06:18.994Z,98501.52
2023-09-17T04:08:45.815Z,98505.45
2023-09-17T04:11:16.391Z,98506.58
2023-09-17T04:13:43.663Z,98506.27
2023-09-17T04:16:11.176Z,98511.86
2023-09-17T04:18:37.995Z,98512.13
2023-09-17T04:21:04.877Z,98513.81
2023-09-17T04:23:31.685Z,98512.36
2023-09-17T04:25:58.369Z,98510.09
2023-09-17T04:28:25.357Z,98515.04
2023-09-17T04:30:52.068Z,98513.64
2023-09-17T04:33:20.204Z,98517.46
2023-09-17T04:35:47.003Z,98519.98
2023-09-17T04:38:13.755Z,98520.00
2023-09-17T04:40:41.496Z,98516.98
2023-09-17T04:43:09.980Z,98517.45
2023-09-17T04:45:39.554Z,98522.14
2023-09-17T04:48:29.582Z,98524.40
2023-09-17T04:50:56.785Z,98524.63
2023-09-17T04:53:23.537Z,98530.61
2023-09-17T04:55:50.405Z,98533.53
2023-09-17T04:58:20.424Z,98539.14
2023-09-17T05:00:48.280Z,98540.34
2023-09-17T05:03:15.821Z,98539.39
2023-09-17T05:05:43.074Z,98539.28
2023-09-17T05:08:09.701Z,98538.14
2023-09-17T05:10:36.695Z,98541.96
2023-09-17T05:13:04.322Z,98544.38
2023-09-17T05:15:30.967Z,98547.54
2023-09-17T05:17:57.983Z,98549.80
2023-09-17T05:20:24.942Z,98553.27
2023-09-17T05:22:51.868Z,98553.13
2023-09-17T05:25:18.977Z,98553.42
2023-09-17T05:27:46.073Z,98554.05
2023-09-17T05:30:13.954Z,98557.98
2023-09-17T05:32:40.705Z,98557.98
2023-09-17T05:35:08.450Z,98561.60
2023-09-17T05:37:35.567Z,98558.61
2023-09-17T05:40:04.244Z,98560.80
2023-09-17T05:42:31.812Z,98560.16
2023-09-17T05:44:58.743Z,98562.69
2023-09-17T05:47:25.429Z,98558.25
2023-09-17T05:49:52.263Z,98560.96
2023-09-17T05:52:19.003Z,98558.80
2023-09-17T05:54:46.006Z,98557.42
2023-09-17T05:57:12.709Z,98558.52
2023-09-17T05:59:39.594Z,98560.33
2023-09-17T06:02:09.915Z,98559.54
2023-09-17T06:04:36.652Z,98560.73
2023-09-17T06:07:04.227Z,98554.98
2023-09-17T06:09:31.985Z,98557.56
2023-09-17T06:11:58.635Z,98557.90
2023-09-17T06:14:25.584Z,98558.23
2023-09-17T06:16:57.914Z,98556.64
2023-09-17T06:19:27.617Z,98561.75
2023-09-17T06:21:55.038Z,98563.75
2023-09-17T06:24:22.139Z,98565.35
2023-09-17T06:26:48.760Z,98564.51
2023-09-17T06:29:16.366Z,98566.11
2023-09-17T06:31:43.797Z,98569.38
2023-09-17T06:34:11.249Z,98571.86
2023-09-17T06:36:37.870Z,98568.17
2023-09-17T06:39:07.054Z,98566.82
2023-09-17T06:41:36.817Z,98567.08
2023-09-17T06:44:05.349Z,98568.80
2023-09-17T06:46:32.771Z,98567.19
2023-09-17T06:48:59.848Z,98568.96
2023-09-17T06:51:26.726Z,98568.27
2023-09-17T06:53:53.751Z,98566.35
2023-09-17T06:56:24.158Z,98564.98
2023-09-17T06:58:51.202Z,98562.70
2023-09-17T07:01:19.468Z,98561.75
2023-09-17T07:03:46.450Z,98559.38
2023-09-17T07:06:13.791Z,98561.56
2023-09-17T07:08:40.443Z,98564.23
2023-09-17T07:11:07.203Z,98566.39
2023-09-17T07:13:34.538Z,98565.02
2023-09-17T07:16:01.699Z,98564.40
2023-09-17T07:18:30.868Z,98561.10
2023-09-17T07:20:57.982Z,98565.75
2023-09-17T07:23:26.014Z,98565.48
2023-09-17T07:25:52.778Z,98561.11
2023-09-17T07:28:20.589Z,98556.66
2023-09-17T07:30:47.208Z,98557.14
2023-09-17T07:33:13.861Z,98553.73
2023-09-17T07:35:40.530Z,98554.75
2023-09-17T07:38:07.138Z,98554.79
2023-09-17T07:40:34.051Z,98555.20
2023-09-17T07:43:01.880Z,98553.61
2023-09-17T07:45:28.516Z,98559.13
2023-09-17T07:47:55.157Z,98552.64
2023-09-17T07:50:22.042Z,98549.77
2023-09-17T07:52:48.865Z,98548.78
2023-09-17T07:55:17.263Z,98546.52
2023-09-17T07:57:44.060Z,98539.13
2023-09-17T08:00:12.878Z,98532.42
2023-09-17T08:02:39.935Z,98534.35
2023-09-17T08:05:07.860Z,98534.09
2023-09-17T08:07:36.834Z,98529.69
2023-09-17T08:10:04.232Z,98528.83
2023-09-17T08:12:33.482Z,98526.80
2023-09-17T08:15:00.256Z,98520.41
2023-09-17T08:17:27.448Z,98521.65
2023-09-17T08:19:54.839Z,98520.10
2023-09-17T08:22:22.896Z,98516.75
2023-09-17T08:24:49.666Z,98516.25
2023-09-17T08:27:17.570Z,98513.52
2023-09-17T08:29:44.406Z,98513.10
2023-09-17T08:32:11.713Z,98507.30
2023-09-17T08:34:38.506Z,98505.44
2023-09-17T08:37:05.411Z,98503.24
2023-09-17T08:39:32.040Z,98500.23
2023-09-17T08:42:00.474Z,98504.70
2023-09-17T08:44:28.397Z,98505.71
2023-09-17T08:46:57.159Z,98501.77
2023-09-17T08:49:24.233Z,98502.78
2023-09-17T08:51:55.913Z,98504.26
2023-09-17T08:54:26.377Z,98502.55
2023-09-17T08:56:57.311Z,98505.03
2023-09-17T08:59:28.751Z,98503.79
2023-09-17T09:01:57.786Z,98504.32
2023-09-17T09:04:26.051Z,98503.20
2023-09-17T09:06:55.108Z,98504.24
2023-09-17T09:09:24.327Z,98503.00
2023-09-17T09:11:51.488Z,98503.73
2023-09-17T09:14:18.219Z,98503.30
2023-09-17T09:16:45.477Z,98502.16
2023-09-17T09:19:12.697Z,98500.31
2023-09-17T09:21:40.321Z,98498.48
2023-09-17T09:24:08.629Z,98492.81
2023-09-17T09:26:37.794Z,98494.89
2023-09-17T09:29:05.778Z,98495.06
2023-09-17T09:31:34.267Z,98495.23
2023-09-17T09:34:03.391Z,98495.99
2023-09-17T09:36:33.617Z,98495.10
2023-09-17T09:39:01.701Z,98495.03
2023-09-17T09:41:30.096Z,98492.83
2023-09-17T09:43:57.466Z,98485.77
2023-09-17T09:46:25.464Z,98481.63
2023-09-17T09:48:52.780Z,98485.50
2023-09-17T09:51:21.622Z,98480.39
2023-09-17T09:53:49.213Z,98484.73
2023-09-17T09:56:16.357Z,98489.36
2023-09-17T09:58:44.918Z,98488.57
2023-09-17T10:01:15.311Z,98484.45
2023-09-17T10:03:42.508Z,98486.16
2023-09-17T10:06:10.514Z,98488.24
2023-09-17T10:08:40.011Z,98491.36
2023-09-17T10:11:10.051Z,98482.15
2023-09-17T10:13:38.073Z,98484.16
2023-09-17T10:16:06.418Z,98480.09
2023-09-17T10:18:35.932Z,98476.95
2023-09-17T10:21:03.192Z,98475.98
2023-09-17T10:23:31.826Z,98478.96
2023-09-17T10:26:00.137Z,98474.61
2023-09-17T10:28:28.333Z,98474.05
2023-09-17T10:30:57.240Z,98472.41
2023-09-17T10:33:27.821Z,98465.57
2023-09-17T10:35:57.748Z,98461.64
2023-09-17T10:38:27.406Z,98456.81
2023-09-17T10:40:56.995Z,98453.38
2023-09-17T10:43:26.025Z,98452.83
2023-09-17T10:45:57.276Z,98444.30
2023-09-17T10:48:27.705Z,98441.55
2023-09-17T10:50:58.419Z,98445.29
2023-09-17T10:53:27.281Z,98439.77
2023-09-17T10:56:08.658Z,98445.41
2023-09-17T10:58:39.466Z,98440.58
2023-09-17T11:01:09.251Z,98433.60
2023-09-17T11:03:40.611Z,98430.89
2023-09-17T11:06:17.456Z,98430.61
2023-09-17T11:08:46.119Z,98430.60
2023-09-17T11:11:15.489Z,98426.91
2023-09-17T11:13:49.401Z,98426.64
2023-09-17T11:16:16.474Z,98425.05
2023-09-17T11:19:19.219Z,98422.40
2023-09-17T11:22:01.040Z,98419.30
2023-09-17T11:24:28.445Z,98419.34
2023-09-17T11:27:01.766Z,98416.00
2023-09-17T11:29:41.997Z,98418.10
2023-09-17T11:32:09.739Z,98416.33
2023-09-17T11:34:41.172Z,98413.13
2023-09-17T11:37:08.112Z,98412.29
2023-09-17T11:39:36.937Z,98412.00
2023-09-17T11:42:14.189Z,98413.58
2023-09-17T11:44:44.313Z,98410.83
2023-09-17T11:47:13.432Z,98408.96
2023-09-17T11:49:40.884Z,98408.13
2023-09-17T11:52:12.545Z,98406.95
2023-09-17T11:54:51.441Z,98402.90
2023-09-17T11:57:25.974Z,98402.64
2023-09-17T11:59:54.676Z,98402.18
2023-09-17T12:02:21.549Z,98402.27
2023-09-17T12:04:49.838Z,98401.27
2023-09-17T12:07:16.924Z,98396.73
2023-09-17T12:10:05.805Z,98393.21
2023-09-17T12:12:35.236Z,98393.59
2023-09-17T12:15:05.523Z,98390.59
2023-09-17T12:17:43.408Z,98386.57
2023-09-17T12:20:57.767Z,98382.78
2023-09-17T12:24:07.278Z,98376.92
2023-09-17T12:26:59.435Z,98372.75
2023-09-17T12:29:29.375Z,98372.10
2023-09-17T12:31:56.650Z,98373.58
2023-09-17T12:34:23.401Z,98375.28
2023-09-17T12:36:50.115Z,98370.31
2023-09-17T12:39:16.862Z,98370.26
2023-09-17T12:41:44.187Z,98369.10
2023-09-17T12:44:12.958Z,98367.94
2023-09-17T12:46:40.211Z,98364.02
2023-09-17T12:49:08.099Z,98362.20
2023-09-17T12:51:38.269Z,98360.77
2023-09-17T12:54:06.558Z,98362.02
2023-09-17T12:56:33.905Z,98367.34
2023-09-17T12:59:01.426Z,98363.95
2023-09-17T13:01:34.461Z,98351.27
2023-09-17T13:04:07.250Z,98351.19
2023-09-17T13:06:35.877Z,98350.13
2023-09-17T13:09:03.411Z,98345.04
2023-09-17T13:11:30.856Z,98342.11
2023-09-17T13:13:58.893Z,98340.96
2023-09-17T13:16:26.365Z,98343.10
2023-09-17T13:18:53.354Z,98340.16
2023-09-17T13:21:20.906Z,98338.70
2023-09-17T13:23:49.332Z,98340.33
2023-09-17T13:26:16.672Z,98338.17
2023-09-17T13:28:43.698Z,98346.63
2023-09-17T13:31:11.507Z,98344.48
2023-09-17T13:33:39.377Z,98342.96
2023-09-17T13:36:10.368Z,98340.25
2023-09-17T13:38:42.175Z,98338.27
2023-09-17T13:41:08.869Z,98334.76
2023-09-17T13:43:35.940Z,98335.04
2023-09-17T13:46:03.242Z,98333.19
2023-09-17T13:48:31.097Z,98330.52
2023-09-17T13:50:57.711Z,98333.48
2023-09-17T13:53:24.512Z,98331.18
2023-09-17T13:55:51.284Z,98328.46
2023-09-17T13:58:18.601Z,98330.42
2023-09-17T14:00:45.475Z,98325.63
2023-09-17T14:03:16.530Z,98324.39
2023-09-17T14:05:44.450Z,98326.19
2023-09-17T14:08:11.885Z,98324.70
2023-09-17T14:10:39.656Z,98325.95
2023-09-17T14:13:06.518Z,98323.53
2023-09-17T14:15:34.975Z,98319.79
2023-09-17T14:18:02.477Z,98318.76
2023-09-17T14:20:30.076Z,98320.83
2023-09-17T14:22:57.062Z,98323.58
2023-09-17T14:25:24.131Z,98323.04
2023-09-17T14:27:51.024Z,98326.52
2023-09-17T14:30:22.344Z,98325.96
2023-09-17T14:32:51.841Z,98327.28
2023-09-17T14:35:18.994Z,98328.02
2023-09-17T14:37:47.894Z,98328.77
2023-09-17T14:40:16.344Z,98327.88
2023-09-17T14:42:43.632Z,98327.60
2023-09-17T14:45:10.567Z,98332.17
2023-09-17T14:47:39.501Z,98331.69
2023-09-17T14:50:08.889Z,98335.14
2023-09-17T14:52:36.584Z,98338.32
2023-09-17T14:55:05.208Z,98339.82
2023-09-17T14:57:34.448Z,98339.16
2023-09-17T15:00:01.156Z,98337.36
2023-09-17T15:02:28.916Z,98337.56
2023-09-17T15:04:56.567Z,98342.02
2023-09-17T15:07:23.823Z,98340.88
2023-09-17T15:09:51.320Z,98337.40
2023-09-17T15:12:18.136Z,98335.89
2023-09-17T15:14:44.930Z,98334.80
2023-09-17T15:17:11.742Z,98335.14
2023-09-17T15:19:38.667Z,98337.52
2023-09-17T15:22:06.320Z,98335.09
2023-09-17T15:24:33.300Z,98339.11
2023-09-17T15:27:00.839Z,98340.24
2023-09-17T15:29:29.911Z,98339.11
2023-09-17T15:31:56.808Z,98335.27
2023-09-17T15:34:24.824Z,98335.22
2023-09-17T15:36:52.512Z,98337.92
2023-09-17T15:39:19.653Z,98334.34
2023-09-17T15:41:46.351Z,98332.31
2023-09-17T15:44:16.020Z,98333.86
2023-09-17T15:46:43.767Z,98331.90
2023-09-17T15:49:10.592Z,98329.83
2023-09-17T15:51:37.516Z,98330.46
2023-09-17T15:54:04.849Z,98327.98
2023-09-17T15:56:31.689Z,98327.46
2023-09-17T15:58:58.592Z,98329.41
2023-09-17T16:01:25.396Z,98327.15
2023-09-17T16:03:52.187Z,98324.83
2023-09-17T16:06:23.601Z,98327.66
2023-09-17T16:08:53.683Z,98324.10
2023-09-17T16:11:20.952Z,98327.48
2023-09-17T16:13:47.674Z,98329.73
2023-09-17T16:16:14.870Z,98330.67
2023-09-17T16:18:42.518Z,98330.92
2023-09-17T16:21:11.569Z,98336.41
2023-09-17T16:23:38.417Z,98339.19
2023-09-17T16:26:05.142Z,98343.08
2023-09-17T16:28:31.848Z,98341.52
2023-09-17T16:30:58.484Z,98346.58
2023-09-17T16:33:25.352Z,98351.33
2023-09-17T16:35:52.071Z,98350.98
2023-09-17T16:38:20.248Z,98349.93
2023-09-17T16:40:47.743Z,98351.05
2023-09-17T16:43:16.051Z,98350.63
2023-09-17T16:45:44.138Z,98349.59
2023-09-17T16:48:11.448Z,98350.41
2023-09-17T16:50:38.142Z,98352.23
2023-09-17T16:53:04.998Z,98353.70
2023-09-17T16:55:31.808Z,98354.83
2023-09-17T16:57:58.437Z,98358.92
2023-09-17T17:00:25.472Z,98365.80
2023-09-17T17:02:52.691Z,98365.29
2023-09-17T17:05:20.034Z,98367.85
2023-09-17T17:07:46.915Z,98370.90
2023-09-17T17:10:15.550Z,98373.51
2023-09-17T17:12:42.412Z,98381.48
2023-09-17T17:15:09.231Z,98386.59
2023-09-17T17:17:36.433Z,98386.05
2023-09-17T17:20:04.329Z,98391.42
2023-09-17T17:22:42.738Z,98390.70
2023-09-17T17:25:10.038Z,98389.27
2023-09-17T17:27:36.732Z,98393.20
2023-09-17T17:30:10.006Z,98392.48
2023-09-17T17:32:45.442Z,98395.44
2023-09-17T17:35:14.210Z,98397.66
2023-09-17T17:37:42.332Z,98401.13
2023-09-17T17:40:09.577Z,98398.64
2023-09-17T17:42:36.493Z,98404.18
2023-09-17T17:45:03.964Z,98406.57
2023-09-17T17:47:34.533Z,98410.30
2023-09-17T17:50:01.418Z,98414.52
2023-09-17T17:52:28.264Z,98417.95
2023-09-17T17:54:55.027Z,98419.69
2023-09-17T17:57:23.562Z,98421.93
2023-09-17T17:59:55.614Z,98423.37
2023-09-17T18:02:22.504Z,98428.40
2023-09-17T18:04:49.271Z,98429.05
2023-09-17T18:07:16.617Z,98434.83
2023-09-17T18:09:45.050Z,98435.61
2023-09-17T18:12:11.984Z,98440.05
2023-09-17T18:14:38.755Z,98442.40
2023-09-17T18:17:05.644Z,98443.60
2023-09-17T18:19:32.519Z,98443.14
2023-09-17T18:22:01.298Z,98445.65
2023-09-17T18:24:29.267Z,98444.84
2023-09-17T18:26:56.334Z,98446.23
2023-09-17T18:29:27.800Z,98447.27
2023-09-17T18:31:56.572Z,98445.69
2023-09-17T18:34:24.437Z,98447.86
2023-09-17T18:36:51.185Z,98447.33
2023-09-17T18:39:19.701Z,98447.09
2023-09-17T18:41:47.442Z,98449.34
2023-09-17T18:44:15.067Z,98452.64
2023-09-17T18:46:41.824Z,98455.17
2023-09-17T18:49:10.943Z,98457.31
2023-09-17T18:51:38.828Z,98459.89
2023-09-17T18:54:05.621Z,98457.23
2023-09-17T18:56:35.460Z,98453.19
2023-09-17T18:59:02.816Z,98450.02
2023-09-17T19:01:30.229Z,98449.58
2023-09-17T19:03:57.171Z,98450.55
2023-09-17T19:06:24.836Z,98452.70
2023-09-17T19:08:51.920Z,98453.07
2023-09-17T19:11:19.761Z,98453.88
2023-09-17T19:13:49.384Z,98456.70
2023-09-17T19:16:16.647Z,98456.03
2023-09-17T19:18:43.920Z,98455.55
2023-09-17T19:21:14.697Z,98454.73
2023-09-17T19:23:42.869Z,98452.11
2023-09-17T19:26:11.440Z,98458.38
2023-09-17T19:28:39.416Z,98456.23
2023-09-17T19:31:06.424Z,98455.69
2023-09-17T19:33:33.830Z,98458.50
2023-09-17T19:36:01.059Z,98457.83
2023-09-17T19:38:31.223Z,98459.98
2023-09-17T19:40:58.279Z,98459.52
2023-09-17T19:43:25.197Z,98455.07
2023-09-17T19:45:56.456Z,98458.49
2023-09-17T19:48:24.474Z,98460.48
2023-09-17T19:50:51.361Z,98462.92
2023-09-17T19:53:20.860Z,98459.94
2023-09-17T19:55:47.773Z,98460.00
2023-09-17T19:58:15.225Z,98459.73
2023-09-17T20:00:42.149Z,98453.52
2023-09-17T20:03:08.967Z,98453.80
2023-09-17T20:05:36.704Z,98452.20
2023-09-17T20:08:08.042Z,98451.48
2023-09-17T20:10:37.403Z,98455.13
2023-09-17T20:13:04.763Z,98454.03
2023-09-17T20:15:34.005Z,98455.05
2023-09-17T20:18:00.628Z,98454.46
2023-09-17T20:20:28.913Z,98456.67
2023-09-17T20:22:55.854Z,98457.69
2023-09-17T20:25:22.590Z,98458.31
2023-09-17T20:27:58.009Z,98461.67
2023-09-17T20:30:26.879Z,98462.71
2023-09-17T20:32:55.565Z,98461.97
2023-09-17T20:35:22.678Z,98462.92
2023-09-17T20:37:49.869Z,98461.94
2023-09-17T20:40:16.985Z,98463.28
2023-09-17T20:42:44.021Z,98461.30
2023-09-17T20:45:11.204Z,98466.09
2023-09-17T20:47:39.075Z,98462.59
2023-09-17T20:50:08.222Z,98466.20
2023-09-17T20:52:35.129Z,98466.77
2023-09-17T20:55:02.782Z,98465.57
2023-09-17T20:57:30.172Z,98465.15
2023-09-17T20:59:57.469Z,98466.61
2023-09-17T21:02:24.852Z,98463.96
2023-09-17T21:04:57.258Z,98468.19
2023-09-17T21:07:25.816Z,98468.38
2023-09-17T21:09:56.964Z,98468.58
2023-09-17T21:12:23.890Z,98467.67
2023-09-17T21:14:51.140Z,98468.34
2023-09-17T21:17:17.839Z,98471.31
2023-09-17T21:19:44.431Z,98469.37
2023-09-17T21:22:11.761Z,98468.63
2023-09-17T21:24:38.966Z,98465.63
2023-09-17T21:27:05.701Z,98464.46
2023-09-17T21:29:36.557Z,98464.92
2023-09-17T21:32:04.009Z,98466.55
2023-09-17T21:34:30.904Z,98466.94
2023-09-17T21:36:57.690Z,98467.14
2023-09-17T21:39:31.640Z,98466.23
2023-09-17T21:41:58.798Z,98471.38
2023-09-17T21:44:25.539Z,98471.89
2023-09-17T21:46:55.621Z,98467.38
2023-09-17T21:49:22.819Z,98466.58
2023-09-17T21:51:49.560Z,98467.92
2023-09-17T21:54:16.317Z,98465.80
2023-09-17T21:56:43.553Z,98467.71
2023-09-17T21:59:10.525Z,98470.37
2023-09-17T22:01:37.417Z,98470.98
2023-09-17T22:04:04.538Z,98472.55
2023-09-17T22:06:31.403Z,98478.21
2023-09-17T22:08:58.358Z,98473.38
2023-09-17T22:11:25.130Z,98470.46
2023-09-17T22:13:52.504Z,98468.42
2023-09-17T22:16:19.864Z,98468.63
2023-09-17T22:18:46.667Z,98470.59
2023-09-17T22:21:13.381Z,98472.83
2023-09-17T22:23:40.180Z,98473.30
2023-09-17T22:26:08.383Z,98473.25
2023-09-17T22:28:35.382Z,98474.51
2023-09-17T22:31:12.753Z,98473.48
2023-09-17T22:33:41.623Z,98471.58
2023-09-17T22:36:09.859Z,98474.34
2023-09-17T22:38:42.773Z,98473.41
2023-09-17T22:41:19.876Z,98478.59
2023-09-17T22:43:48.254Z,98477.23
2023-09-17T22:46:19.677Z,98479.59
2023-09-17T22:48:54.978Z,98483.98
2023-09-17T22:51:23.224Z,98479.44
2023-09-17T22:53:53.613Z,98481.51
2023-09-17T22:56:20.331Z,98479.80
2023-09-17T22:58:47.291Z,98479.44
2023-09-17T23:01:17.956Z,98479.80
2023-09-17T23:03:45.492Z,98480.55
2023-09-17T23:06:13.083Z,98479.36
2023-09-17T23:08:40.360Z,98480.69
2023-09-17T23:11:08.167Z,98477.98
2023-09-17T23:13:36.526Z,98476.45
2023-09-17T23:16:05.749Z,98475.02
2023-09-17T23:18:33.057Z,98476.69
2023-09-17T23:21:00.429Z,98475.86
2023-09-17T23:23:27.176Z,98477.04
2023-09-17T23:25:55.218Z,98482.40
2023-09-17T23:28:23.800Z,98480.80
2023-09-17T23:30:51.620Z,98478.48
2023-09-17T23:33:19.293Z,98475.05
2023-09-17T23:35:47.861Z,98480.45
2023-09-17T23:38:14.452Z,98479.27
2023-09-17T23:40:41.045Z,98483.73
2023-09-17T23:43:12.383Z,98482.38
2023-09-17T23:45:39.842Z,98480.56
2023-09-17T23:48:07.265Z,98476.79
2023-09-17T23:50:34.103Z,98474.23
2023-09-17T23:53:03.987Z,98473.23
2023-09-17T23:55:31.256Z,98470.25
2023-09-17T23:57:58.339Z,98467.59
